Time;durP1;ratioP1;P1;durP2;ratioP2;P2;SDS_P1;SDS_P2;PMS_P1;PMS_P2;Temp;Humidity;BMP_temperature;BMP_pressure;BME280_temperature;BME280_humidity;BME280_pressure;Samples;Min_cycle;Max_cycle;Signal;HPM_P1;HPM_P2
2023/09/06 06:52:47;;;;;;;8.35;4.75;;;;;;;17.05;71.61;96990.47;2085706;28;20570;-73
2023/09/06 06:54:54;;;;;;;12.30;5.15;;;;;;;17.49;70.45;96982.31;2086083;28;20571;-73
2023/09/06 06:55:56;;;;;;;10.40;4.65;;;;;;;17.60;70.16;96993.00;2083210;28;20192;-73
2023/09/06 06:56:58;;;;;;;9.00;4.18;;;;;;;17.61;69.99;96984.13;2079103;28;20196;-73
2023/09/06 06:57:59;;;;;;;10.73;5.05;;;;;;;17.87;69.58;96992.91;2080047;28;20197;-73
2023/09/06 06:59:02;;;;;;;15.45;5.20;;;;;;;18.05;69.30;96985.53;2075464;28;20218;-73
2023/09/06 07:00:11;;;;;;;8.20;4.82;;;;;;;18.24;68.85;96973.69;2070863;28;20212;-73
2023/09/06 07:01:13;;;;;;;10.23;4.30;;;;;;;18.36;68.55;96987.81;2074554;28;20293;-73
2023/09/06 07:02:15;;;;;;;9.50;4.07;;;;;;;18.54;67.73;96975.09;2074591;28;20224;-73
2023/09/06 07:03:17;;;;;;;7.45;4.20;;;;;;;18.80;67.50;96985.59;2074074;28;20241;-73
2023/09/06 07:04:19;;;;;;;11.18;4.80;;;;;;;18.71;67.32;96992.41;2075279;28;20289;-74
2023/09/06 07:05:20;;;;;;;10.80;5.03;;;;;;;18.92;67.36;96988.22;2074266;28;20193;-73
2023/09/06 07:06:23;;;;;;;12.05;5.30;;;;;;;19.11;66.97;96993.94;2071669;28;20217;-72
2023/09/06 07:07:25;;;;;;;9.95;4.75;;;;;;;19.45;66.03;96996.75;2074687;28;20256;-70
2023/09/06 07:08:27;;;;;;;9.77;4.95;;;;;;;19.52;65.89;96996.16;2073578;28;20240;-71
2023/09/06 07:09:29;;;;;;;7.53;4.35;;;;;;;19.42;66.14;96989.88;2072952;28;20201;-72
2023/09/06 07:10:30;;;;;;;9.27;4.57;;;;;;;20.09;64.59;96992.78;2074347;28;20213;-71
2023/09/06 07:11:33;;;;;;;6.45;3.83;;;;;;;20.31;63.54;97003.41;2071921;28;20236;-70
2023/09/06 07:12:35;;;;;;;5.47;3.80;;;;;;;20.15;64.70;97000.28;2073424;28;20202;-73
2023/09/06 07:13:38;;;;;;;13.25;4.53;;;;;;;20.28;63.63;96997.50;2074688;28;20547;-73
2023/09/06 07:14:39;;;;;;;7.00;4.07;;;;;;;20.71;61.71;96994.16;2072329;28;20218;-73
2023/09/06 07:15:42;;;;;;;7.35;4.30;;;;;;;21.14;61.44;96995.97;2071924;28;20197;-73
2023/09/06 07:16:44;;;;;;;10.75;4.30;;;;;;;21.28;61.26;96994.81;2072503;28;20205;-73
2023/09/06 07:17:46;;;;;;;7.68;4.57;;;;;;;21.19;60.61;96996.44;2071944;28;20193;-73
2023/09/06 07:18:48;;;;;;;5.78;3.90;;;;;;;21.18;60.03;96991.25;2071590;28;20772;-73
2023/09/06 07:19:49;;;;;;;7.45;3.47;;;;;;;21.68;58.88;96996.81;2073826;28;20201;-73
2023/09/06 07:20:51;;;;;;;7.20;4.20;;;;;;;21.68;58.50;97002.13;2074460;28;20646;-73
2023/09/06 07:21:53;;;;;;;6.70;3.85;;;;;;;22.21;57.48;96999.50;2073550;28;20198;-73
2023/09/06 07:22:54;;;;;;;7.18;3.78;;;;;;;21.68;57.90;97002.13;2074659;28;20284;-73
2023/09/06 07:23:56;;;;;;;6.65;3.65;;;;;;;22.32;57.25;96996.75;2073085;28;20681;-73
2023/09/06 07:24:57;;;;;;;4.90;3.60;;;;;;;21.73;58.12;96992.94;2073926;28;20198;-73
2023/09/06 07:25:59;;;;;;;5.65;3.55;;;;;;;21.66;58.31;96997.91;2081753;28;20228;-73
2023/09/06 07:27:00;;;;;;;9.00;3.92;;;;;;;22.27;58.29;96999.81;2078219;28;20680;-72
2023/09/06 07:28:02;;;;;;;12.13;4.25;;;;;;;22.73;55.70;96994.09;2074037;28;20194;-72
2023/09/06 07:29:04;;;;;;;8.65;3.80;;;;;;;22.72;56.13;96997.78;2074457;28;20221;-72
2023/09/06 07:30:06;;;;;;;7.57;4.45;;;;;;;23.03;55.17;96990.53;2074908;28;20235;-72
2023/09/06 07:31:08;;;;;;;5.40;3.40;;;;;;;22.75;55.69;96994.81;2074527;28;20197;-72
2023/09/06 07:32:10;;;;;;;4.85;3.08;;;;;;;22.41;56.42;96998.66;2070747;28;20656;-72
2023/09/06 07:33:11;;;;;;;5.80;3.85;;;;;;;22.50;56.43;96997.84;2071252;28;20277;-72
2023/09/06 07:34:13;;;;;;;8.75;3.78;;;;;;;22.59;55.82;96998.84;2074031;28;20221;-72
2023/09/06 07:35:15;;;;;;;6.00;3.90;;;;;;;23.75;53.62;96996.44;2074295;28;20316;-72
2023/09/06 07:36:18;;;;;;;4.78;3.55;;;;;;;23.80;54.42;96993.34;2070623;28;20201;-72
2023/09/06 07:37:20;;;;;;;5.90;3.70;;;;;;;24.03;53.71;96995.72;2073665;28;20202;-72
2023/09/06 07:38:21;;;;;;;5.93;3.50;;;;;;;23.84;53.51;96999.25;2073977;28;20197;-72
2023/09/06 07:39:23;;;;;;;6.70;3.90;;;;;;;23.18;55.11;96996.31;2073459;28;20742;-72
2023/09/06 07:40:24;;;;;;;5.13;3.67;;;;;;;23.61;54.22;97003.03;2073096;28;20202;-72
2023/09/06 07:41:26;;;;;;;5.13;3.55;;;;;;;23.93;53.71;96998.41;2074706;28;20283;-72
2023/09/06 07:42:29;;;;;;;11.18;3.90;;;;;;;23.80;54.18;97001.34;2070473;28;20381;-72
2023/09/06 07:43:31;;;;;;;7.38;4.03;;;;;;;23.57;54.58;97006.16;2072385;28;20232;-72
2023/09/06 07:44:32;;;;;;;7.88;4.20;;;;;;;23.74;53.93;96992.09;2073013;28;20645;-72
2023/09/06 07:45:36;;;;;;;7.13;4.00;;;;;;;24.02;53.79;96999.38;2074810;28;20713;-72
2023/09/06 07:46:39;;;;;;;6.95;4.00;;;;;;;24.45;53.42;97005.97;2074076;28;20259;-72
2023/09/06 07:47:40;;;;;;;6.20;3.78;;;;;;;24.77;52.67;96999.38;2073132;28;20225;-72
2023/09/06 07:48:42;;;;;;;7.15;4.15;;;;;;;24.51;52.99;97002.72;2071946;28;20217;-72
2023/09/06 07:49:44;;;;;;;12.40;3.95;;;;;;;25.25;51.53;97006.25;2074741;28;20280;-72
2023/09/06 07:50:47;;;;;;;5.30;3.55;;;;;;;25.04;51.66;97003.84;2073633;28;20543;-72
2023/09/06 07:51:48;;;;;;;12.02;4.07;;;;;;;24.54;52.99;97007.72;2073864;28;20261;-72
2023/09/06 07:52:49;;;;;;;6.82;3.95;;;;;;;24.77;53.56;97005.56;2070595;28;20828;-72
2023/09/06 07:53:51;;;;;;;7.25;3.85;;;;;;;24.81;52.94;97007.91;2070610;28;20644;-72
2023/09/06 07:54:52;;;;;;;10.88;4.03;;;;;;;24.69;52.74;97004.63;2065800;28;20214;-72
2023/09/06 07:55:55;;;;;;;5.28;3.78;;;;;;;25.27;51.23;97004.25;2066378;28;20285;-71
2023/09/06 07:56:56;;;;;;;6.53;3.28;;;;;;;24.85;52.42;97012.81;2062312;28;20535;-72
2023/09/06 07:57:58;;;;;;;7.28;3.33;;;;;;;24.26;53.13;97002.41;2062566;28;20199;-72
2023/09/06 07:58:59;;;;;;;9.32;3.30;;;;;;;25.36;51.89;97005.19;2061940;28;20306;-72
2023/09/06 08:00:01;;;;;;;8.93;3.70;;;;;;;25.57;51.25;97006.69;2062809;28;20289;-73
2023/09/06 08:01:04;;;;;;;7.55;3.90;;;;;;;25.65;50.69;97005.94;2062352;28;20573;-72
2023/09/06 08:02:18;;;;;;;7.07;4.18;;;;;;;25.68;51.43;97008.31;2063940;28;20205;-72
2023/09/06 08:03:20;;;;;;;8.18;4.63;;;;;;;24.81;52.75;97005.25;2064298;28;20229;-72
2023/09/06 08:04:22;;;;;;;8.23;4.10;;;;;;;24.71;52.69;97005.28;2066692;28;20206;-73
2023/09/06 08:05:24;;;;;;;8.48;4.30;;;;;;;25.57;51.66;97004.88;2065273;28;20665;-72
2023/09/06 08:06:25;;;;;;;11.82;4.45;;;;;;;25.30;51.83;97005.78;2061319;28;20195;-73
2023/09/06 08:07:27;;;;;;;6.93;3.75;;;;;;;25.00;52.89;97009.63;2060634;28;20590;-72
2023/09/06 08:08:29;;;;;;;4.88;3.80;;;;;;;24.65;52.93;97011.25;2057842;28;20289;-73
2023/09/06 08:09:31;;;;;;;8.15;4.07;;;;;;;24.94;52.80;97016.44;2059954;28;20195;-73
2023/09/06 08:10:33;;;;;;;6.80;4.10;;;;;;;24.84;53.28;97015.66;2062331;28;20240;-73
2023/09/06 08:11:35;;;;;;;6.43;3.72;;;;;;;24.35;54.07;97013.16;2060790;28;20231;-72
2023/09/06 08:12:36;;;;;;;5.88;3.75;;;;;;;23.70;55.28;97019.19;2059196;28;20211;-74
2023/09/06 08:13:38;;;;;;;5.75;3.90;;;;;;;23.89;54.85;97021.81;2056371;28;20235;-73
2023/09/06 08:14:41;;;;;;;7.47;4.20;;;;;;;24.00;55.24;97014.66;2061557;28;20208;-73
2023/09/06 08:15:44;;;;;;;7.25;4.07;;;;;;;24.33;54.28;97017.78;2056918;28;20295;-73
2023/09/06 08:16:45;;;;;;;5.72;3.80;;;;;;;24.56;53.92;97020.97;2060317;28;20741;-72
2023/09/06 08:17:47;;;;;;;9.88;3.90;;;;;;;24.29;54.82;97015.44;2061809;28;20207;-72
2023/09/06 08:18:49;;;;;;;7.60;4.30;;;;;;;23.55;55.44;97016.94;2062179;28;20219;-72
2023/09/06 08:19:50;;;;;;;8.10;4.00;;;;;;;23.99;54.65;97021.00;2059604;28;20226;-73
2023/09/06 08:20:52;;;;;;;6.95;4.50;;;;;;;24.43;54.56;97019.44;2061099;28;20301;-73
2023/09/06 08:21:53;;;;;;;8.15;3.97;;;;;;;24.22;55.14;97017.00;2060240;28;20203;-73
2023/09/06 08:22:55;;;;;;;8.20;4.40;;;;;;;24.01;54.98;97019.00;2060136;28;20195;-73
2023/09/06 08:23:56;;;;;;;7.50;4.75;;;;;;;24.09;54.81;97027.16;2060910;28;20281;-72
2023/09/06 08:24:58;;;;;;;5.85;3.72;;;;;;;24.17;55.04;97029.91;2062257;28;20202;-72
2023/09/06 08:25:59;;;;;;;10.82;4.55;;;;;;;24.35;53.94;97021.16;2059391;28;20363;-73
2023/09/06 08:27:01;;;;;;;9.13;5.22;;;;;;;24.16;55.86;97027.41;2061154;28;20278;-73
2023/09/06 08:28:03;;;;;;;10.07;4.68;;;;;;;24.18;55.15;97031.63;2057936;28;20207;-72
2023/09/06 08:29:05;;;;;;;7.93;4.18;;;;;;;23.64;55.08;97026.75;2057529;28;20288;-73
2023/09/06 08:30:10;;;;;;;6.63;4.22;;;;;;;24.11;55.36;97030.50;2060375;28;20670;-72
2023/09/06 08:31:12;;;;;;;7.95;4.28;;;;;;;23.58;55.73;97027.31;2061371;28;20195;-72
2023/09/06 08:32:13;;;;;;;8.95;5.15;;;;;;;23.46;56.04;97029.31;2059429;28;20214;-72
2023/09/06 08:33:16;;;;;;;8.77;3.90;;;;;;;23.65;55.72;97022.25;2061227;28;20238;-72
2023/09/06 08:34:19;;;;;;;7.88;4.40;;;;;;;23.66;56.37;97026.63;2061012;28;20836;-72
2023/09/06 08:35:23;;;;;;;5.97;3.92;;;;;;;23.76;55.85;97016.78;2056814;28;20309;-72
2023/09/06 08:36:24;;;;;;;11.63;4.65;;;;;;;23.85;56.14;97020.41;2060559;28;20202;-72
2023/09/06 08:37:26;;;;;;;5.75;4.00;;;;;;;23.93;55.94;97027.72;2058849;28;20199;-72
2023/09/06 08:38:27;;;;;;;6.40;3.90;;;;;;;23.31;57.37;97018.22;2058184;28;20283;-72
2023/09/06 08:39:30;;;;;;;7.13;4.45;;;;;;;22.92;57.78;97018.13;2058039;28;20203;-73
2023/09/06 08:40:32;;;;;;;12.40;4.75;;;;;;;23.29;56.65;97025.50;2056716;28;20200;-73
2023/09/06 08:41:33;;;;;;;22.48;5.75;;;;;;;23.23;57.15;97019.88;2058641;28;21195;-73
2023/09/06 08:42:36;;;;;;;9.35;4.60;;;;;;;23.26;56.45;97023.13;2060147;28;20199;-73
2023/09/06 08:43:42;;;;;;;9.32;4.40;;;;;;;22.89;57.31;97021.03;2058734;28;20206;-73
2023/09/06 08:44:49;;;;;;;9.95;5.00;;;;;;;23.47;57.24;97022.97;2058481;28;20564;-72
2023/09/06 08:45:51;;;;;;;6.18;3.60;;;;;;;24.02;55.89;97026.88;2059412;28;20195;-73
2023/09/06 08:46:54;;;;;;;9.18;4.47;;;;;;;23.53;57.27;97020.72;2060319;28;20205;-72
2023/09/06 08:47:56;;;;;;;8.43;4.20;;;;;;;23.57;56.79;97022.16;2061307;28;20212;-73
2023/09/06 08:49:00;;;;;;;9.98;4.68;;;;;;;24.15;56.45;97021.25;2060828;28;20730;-72
2023/09/06 08:50:02;;;;;;;6.50;4.15;;;;;;;24.29;55.49;97018.09;2059981;28;20194;-72
2023/09/06 08:51:05;;;;;;;7.30;4.40;;;;;;;23.71;56.56;97020.88;2060090;28;20225;-72
2023/09/06 08:52:10;;;;;;;10.63;4.35;;;;;;;23.78;56.80;97020.16;2059453;28;20624;-72
2023/09/06 08:53:15;;;;;;;10.40;5.47;;;;;;;23.59;57.40;97026.34;2060750;28;20559;-72
2023/09/06 08:54:17;;;;;;;7.82;4.93;;;;;;;23.94;57.10;97022.25;2063090;28;20325;-71
2023/09/06 08:55:19;;;;;;;8.18;4.43;;;;;;;23.91;55.76;97030.56;2068459;28;20198;-73
2023/09/06 08:56:21;;;;;;;8.55;4.50;;;;;;;23.80;56.23;97031.50;2076045;28;20237;-72
2023/09/06 08:57:23;;;;;;;13.70;4.60;;;;;;;24.07;56.07;97029.13;2074817;28;20557;-72
2023/09/06 08:58:27;;;;;;;10.52;3.88;;;;;;;23.96;55.66;97028.28;2065780;28;20202;-72
2023/09/06 08:59:32;;;;;;;9.52;4.85;;;;;;;24.21;55.85;97027.81;2068330;28;20203;-72
2023/09/06 09:00:34;;;;;;;10.68;4.18;;;;;;;24.37;56.00;97025.38;2069575;28;20202;-73
2023/09/06 09:01:37;;;;;;;7.78;4.60;;;;;;;24.44;55.60;97036.28;2067483;28;20248;-74
2023/09/06 09:02:42;;;;;;;17.65;5.15;;;;;;;24.42;55.90;97025.78;2064635;28;20194;-73
2023/09/06 09:03:44;;;;;;;10.70;4.82;;;;;;;23.31;57.56;97025.34;2059488;28;20236;-73
2023/09/06 09:04:45;;;;;;;13.25;4.45;;;;;;;23.45;57.70;97024.09;2076052;28;20202;-74
2023/09/06 09:05:47;;;;;;;16.77;4.60;;;;;;;23.71;57.40;97028.88;2072752;28;20286;-66
2023/09/06 09:06:49;;;;;;;10.18;4.40;;;;;;;24.55;55.55;97027.28;2064825;28;20190;-67
2023/09/06 09:08:00;;;;;;;21.95;5.28;;;;;;;24.28;55.48;97031.59;2064662;28;20277;-66
2023/09/06 09:09:32;;;;;;;12.07;4.82;;;;;;;24.71;54.50;97030.19;2067870;28;20228;-66
2023/09/06 09:10:36;;;;;;;15.90;5.20;;;;;;;24.75;54.14;97022.72;2066320;28;20206;-67
2023/09/06 09:11:43;;;;;;;25.40;5.97;;;;;;;24.32;55.49;97026.81;2068256;28;20642;-67
2023/09/06 09:12:45;;;;;;;12.13;4.20;;;;;;;23.87;54.81;97025.59;2067909;28;20229;-66
2023/09/06 09:13:46;;;;;;;14.73;4.30;;;;;;;23.80;55.40;97026.16;2064116;28;20222;-66
2023/09/06 09:14:48;;;;;;;8.15;3.25;;;;;;;23.90;55.33;97026.16;2067928;28;20202;-74
2023/09/06 09:15:49;;;;;;;8.18;4.30;;;;;;;23.91;55.59;97027.03;2068275;28;20214;-74
2023/09/06 09:16:58;;;;;;;12.80;3.90;;;;;;;23.47;56.66;97024.81;2062341;28;20653;-74
2023/09/06 09:18:12;;;;;;;9.60;4.35;;;;;;;23.60;55.67;97019.19;2064998;28;20202;-74
2023/09/06 09:19:14;;;;;;;11.93;4.53;;;;;;;23.72;54.22;97026.06;2062992;28;20312;-73
2023/09/06 09:20:17;;;;;;;6.80;4.13;;;;;;;23.76;54.91;97019.44;2067415;28;20225;-74
2023/09/06 09:21:18;;;;;;;6.82;3.78;;;;;;;23.91;54.68;97019.88;2066561;28;20626;-74
2023/09/06 09:22:23;;;;;;;9.20;4.65;;;;;;;24.35;55.11;97016.66;2066792;28;20190;-73
2023/09/06 09:23:26;;;;;;;7.40;3.65;;;;;;;24.61;54.22;97022.19;2066659;28;20198;-73
2023/09/06 09:24:29;;;;;;;10.77;4.03;;;;;;;24.83;54.08;97025.47;2066096;28;20225;-73
2023/09/06 09:25:32;;;;;;;10.02;3.80;;;;;;;25.53;53.24;97021.38;2065003;28;20202;-73
2023/09/06 09:26:34;;;;;;;8.50;3.90;;;;;;;25.69;52.35;97028.72;2065248;28;20205;-74
2023/09/06 09:27:37;;;;;;;7.03;4.00;;;;;;;24.45;54.19;97029.97;2064268;28;20321;-73
2023/09/06 09:28:41;;;;;;;6.75;3.70;;;;;;;24.83;54.50;97025.47;2066120;28;20194;-73
2023/09/06 09:29:44;;;;;;;9.52;5.07;;;;;;;24.83;53.62;97024.66;2067397;28;20198;-73
2023/09/06 09:30:47;;;;;;;6.75;3.60;;;;;;;24.83;53.64;97020.13;2068754;28;20276;-73
2023/09/06 09:31:48;;;;;;;9.95;3.53;;;;;;;24.83;53.38;97025.47;2069082;28;20205;-74
2023/09/06 09:32:59;;;;;;;13.90;3.70;;;;;;;25.32;52.47;97029.66;2069477;28;20224;-74
2023/09/06 09:34:00;;;;;;;11.27;4.05;;;;;;;24.82;53.13;97021.13;2067691;28;20288;-74
2023/09/06 09:35:04;;;;;;;5.78;3.60;;;;;;;25.44;52.59;97017.78;2067250;28;20198;-73
2023/09/06 09:36:07;;;;;;;8.23;4.15;;;;;;;25.51;52.40;97018.88;2064311;28;20203;-74
2023/09/06 09:37:09;;;;;;;6.20;3.10;;;;;;;26.59;50.36;97016.91;2066737;28;20198;-73
2023/09/06 09:38:10;;;;;;;9.50;4.28;;;;;;;25.50;52.34;97013.69;2066623;28;20202;-73
2023/09/06 09:39:13;;;;;;;12.35;4.50;;;;;;;25.49;52.94;97017.34;2065118;28;20233;-74
2023/09/06 09:40:22;;;;;;;8.68;3.70;;;;;;;25.77;51.73;97022.59;2069822;28;20201;-73
2023/09/06 09:41:31;;;;;;;6.75;3.92;;;;;;;25.94;51.62;97018.19;2068953;28;20280;-74
2023/09/06 09:42:51;;;;;;;11.05;4.40;;;;;;;25.69;51.65;97010.81;2068453;28;20538;-73
2023/09/06 09:44:12;;;;;;;10.30;4.55;;;;;;;26.20;51.10;97010.22;2066564;28;20333;-73
2023/09/06 09:45:14;;;;;;;10.48;3.65;;;;;;;26.12;51.92;97015.50;2067951;28;20209;-73
2023/09/06 09:46:29;;;;;;;8.48;4.03;;;;;;;26.17;51.70;97011.38;2067705;28;20194;-73
2023/09/06 09:47:32;;;;;;;9.05;3.95;;;;;;;26.80;50.54;97013.88;2067777;28;20592;-74
2023/09/06 09:48:58;;;;;;;14.40;3.92;;;;;;;27.77;49.48;97008.88;2066444;28;20292;-74
2023/09/06 09:50:01;;;;;;;9.20;4.13;;;;;;;27.18;50.35;97015.13;2068091;28;20210;-74
2023/09/06 09:51:07;;;;;;;10.38;4.22;;;;;;;28.15;49.85;97006.50;2067976;28;20193;-73
2023/09/06 09:52:11;;;;;;;9.32;4.20;;;;;;;28.79;48.71;97016.38;2067286;28;20576;-74
2023/09/06 09:53:19;;;;;;;16.48;3.95;;;;;;;29.16;47.81;97014.84;2067231;28;20542;-73
2023/09/06 09:54:24;;;;;;;10.02;4.50;;;;;;;29.21;48.15;97011.63;2067856;28;20260;-73
2023/09/06 09:55:31;;;;;;;6.93;4.03;;;;;;;29.63;47.93;97009.53;2071028;28;20253;-74
2023/09/06 09:56:39;;;;;;;7.25;3.90;;;;;;;30.25;46.79;97015.72;2070990;28;20222;-73
2023/09/06 09:57:45;;;;;;;14.93;4.88;;;;;;;30.00;46.93;97013.25;2072899;28;20387;-66
2023/09/06 09:59:08;;;;;;;25.85;4.70;;;;;;;30.67;45.69;97018.81;2072329;28;20313;-67
2023/09/06 10:00:13;;;;;;;7.40;4.28;;;;;;;29.81;45.56;97017.28;2066724;28;20210;-67
2023/09/06 10:01:15;;;;;;;15.27;4.95;;;;;;;27.90;49.22;97010.19;2067204;28;20267;-67
2023/09/06 10:02:19;;;;;;;17.17;4.50;;;;;;;28.34;48.49;97017.84;2067538;28;20286;-66
2023/09/06 10:03:42;;;;;;;17.52;5.90;;;;;;;26.60;51.53;97019.47;2067712;28;20591;-67
2023/09/06 10:04:44;;;;;;;14.50;5.38;;;;;;;26.89;50.99;97013.75;2067943;28;20537;-66
2023/09/06 10:05:47;;;;;;;8.32;4.75;;;;;;;27.92;49.33;97016.22;2065548;28;20203;-67
2023/09/06 10:06:48;;;;;;;5.65;3.55;;;;;;;29.11;48.60;97019.91;2065322;28;20206;-66
2023/09/06 10:07:50;;;;;;;8.52;4.30;;;;;;;27.46;49.87;97011.38;2066493;28;20221;-66
2023/09/06 10:08:55;;;;;;;9.07;4.25;;;;;;;28.85;48.92;97014.84;2065892;28;20225;-67
2023/09/06 10:09:59;;;;;;;8.25;4.43;;;;;;;29.33;47.22;97020.16;2067927;28;20234;-67
2023/09/06 10:11:01;;;;;;;7.40;3.75;;;;;;;30.38;45.42;97010.50;2067007;28;20248;-66
2023/09/06 10:12:04;;;;;;;18.17;3.85;;;;;;;30.83;44.88;97009.69;2067920;28;20198;-67
2023/09/06 10:13:07;;;;;;;8.98;3.80;;;;;;;31.12;44.76;97006.13;2067274;28;20199;-66
2023/09/06 10:14:11;;;;;;;12.02;4.78;;;;;;;30.59;43.89;97007.13;2067266;28;20239;-66
2023/09/06 10:15:13;;;;;;;9.85;4.32;;;;;;;28.07;48.39;97013.72;2067939;28;20198;-66
2023/09/06 10:16:15;;;;;;;6.70;3.87;;;;;;;29.28;47.13;97012.63;2067921;28;20841;-67
2023/09/06 10:17:17;;;;;;;8.57;4.25;;;;;;;30.05;45.47;97016.22;2068659;28;20432;-66
2023/09/06 10:18:18;;;;;;;15.25;4.07;;;;;;;28.56;48.17;97010.91;2068627;28;20203;-66
2023/09/06 10:19:20;;;;;;;8.52;4.72;;;;;;;29.47;47.39;97014.00;2066675;28;20711;-66
2023/09/06 10:20:23;;;;;;;13.00;4.35;;;;;;;28.91;46.92;97005.25;2067691;28;20205;-66
2023/09/06 10:21:27;;;;;;;5.13;3.83;;;;;;;30.33;45.60;97010.22;2067601;28;20198;-67
2023/09/06 10:22:28;;;;;;;20.83;4.57;;;;;;;30.73;44.18;97010.00;2066712;28;20707;-67
2023/09/06 10:23:31;;;;;;;13.80;4.80;;;;;;;28.86;46.74;97013.81;2063567;28;21105;-64
2023/09/06 10:24:36;;;;;;;8.70;4.20;;;;;;;29.15;47.83;97010.50;2065545;28;20432;-65
2023/09/06 10:25:41;;;;;;;9.90;3.47;;;;;;;29.51;46.71;97009.13;2067376;28;20204;-65
2023/09/06 10:26:46;;;;;;;10.50;4.78;;;;;;;28.70;47.13;97014.75;2067745;28;20665;-66
2023/09/06 10:27:51;;;;;;;10.15;5.15;;;;;;;28.20;47.96;97005.97;2067653;28;20202;-63
2023/09/06 10:29:00;;;;;;;10.15;5.00;;;;;;;28.19;48.69;97004.31;2063148;28;20310;-64
2023/09/06 10:30:06;;;;;;;11.90;4.28;;;;;;;28.95;47.93;97004.72;2065042;28;20285;-66
2023/09/06 10:31:08;;;;;;;9.07;3.95;;;;;;;29.36;47.56;97014.44;2067278;28;20195;-67
2023/09/06 10:32:11;;;;;;;15.15;4.47;;;;;;;29.58;46.96;97003.84;2066380;28;20202;-67
2023/09/06 10:33:42;;;;;;;7.28;4.47;;;;;;;30.32;45.38;97005.88;2065331;28;20293;-68
2023/09/06 10:34:49;;;;;;;10.65;5.05;;;;;;;30.85;45.73;97005.78;2065462;28;20246;-67
2023/09/06 10:35:57;;;;;;;10.40;4.90;;;;;;;30.24;45.19;96997.88;2063975;28;20198;-67
2023/09/06 10:37:02;;;;;;;10.25;4.50;;;;;;;28.27;47.75;97006.97;2064706;28;20416;-67
2023/09/06 10:38:06;;;;;;;9.85;4.57;;;;;;;27.44;50.72;97000.81;2064364;28;20237;-66
2023/09/06 10:39:14;;;;;;;16.17;4.30;;;;;;;29.76;47.90;97009.75;2066003;28;20244;-67
2023/09/06 10:40:16;;;;;;;6.60;4.10;;;;;;;31.11;44.46;97012.56;2065193;28;20463;-67
2023/09/06 10:41:21;;;;;;;13.80;5.17;;;;;;;31.74;43.23;97002.00;2067570;28;20435;-67
2023/09/06 10:42:23;;;;;;;5.57;3.63;;;;;;;32.21;42.79;97010.50;2075043;28;20517;-67
2023/09/06 10:43:29;;;;;;;7.70;4.30;;;;;;;31.67;43.06;97006.50;2074428;28;20434;-68
2023/09/06 10:44:55;;;;;;;7.80;3.83;;;;;;;33.08;42.16;97007.44;2067481;28;20428;-67
2023/09/06 10:46:22;;;;;;;7.70;4.23;;;;;;;31.12;44.75;97002.59;2066577;28;20431;-68
2023/09/06 10:47:32;;;;;;;9.07;3.80;;;;;;;32.06;42.15;97005.16;2067578;28;20432;-68
2023/09/06 10:48:34;;;;;;;7.77;3.57;;;;;;;32.98;42.04;97005.09;2067802;28;20492;-68
2023/09/06 10:49:35;;;;;;;7.70;4.00;;;;;;;33.22;41.45;97003.72;2066952;28;20570;-67
2023/09/06 10:50:37;;;;;;;6.57;4.40;;;;;;;33.32;40.76;97006.06;2066754;28;20431;-68
2023/09/06 10:51:58;;;;;;;5.80;3.53;;;;;;;33.87;39.05;97015.13;2064692;28;20423;-67
2023/09/06 10:53:02;;;;;;;6.70;3.83;;;;;;;33.47;40.24;97005.88;2064552;28;20430;-67
2023/09/06 10:54:04;;;;;;;5.93;4.00;;;;;;;31.32;43.65;97000.94;2063877;28;20452;-69
2023/09/06 10:55:13;;;;;;;13.00;4.20;;;;;;;32.19;42.60;97000.94;2064865;28;20432;-68
2023/09/06 10:56:27;;;;;;;5.60;4.30;;;;;;;32.59;41.88;97006.56;2067644;28;21274;-68
2023/09/06 10:57:46;;;;;;;11.13;4.20;;;;;;;32.72;40.32;97008.47;2067170;28;20514;-67
2023/09/06 10:58:48;;;;;;;7.40;3.83;;;;;;;31.49;42.77;97006.09;2066285;28;20483;-68
2023/09/06 10:59:58;;;;;;;9.40;3.77;;;;;;;30.71;44.22;97002.06;2069080;28;20455;-68
2023/09/06 11:01:15;;;;;;;5.40;4.20;;;;;;;32.40;42.64;97006.25;2068877;28;20431;-68
2023/09/06 11:02:27;;;;;;;5.90;3.80;;;;;;;33.38;41.67;97007.09;2066537;28;20428;-68
2023/09/06 11:03:32;;;;;;;12.73;4.27;;;;;;;33.34;40.37;97004.00;2066585;28;21000;-68
2023/09/06 11:04:34;;;;;;;9.73;4.87;;;;;;;33.54;40.63;97008.59;2063578;28;20432;-68
2023/09/06 11:05:50;;;;;;;10.47;3.97;;;;;;;34.09;40.03;97004.88;2066174;28;20432;-68
2023/09/06 11:06:52;;;;;;;8.60;4.67;;;;;;;33.68;38.96;97004.03;2066142;28;20463;-67
2023/09/06 11:07:54;;;;;;;8.13;4.23;;;;;;;32.62;40.60;97002.63;2068214;28;20898;-69
2023/09/06 11:09:05;;;;;;;9.17;3.90;;;;;;;33.35;40.12;97007.53;2068144;28;20455;-68
2023/09/06 11:10:07;;;;;;;9.80;4.10;;;;;;;33.08;40.46;96995.75;2067163;28;20515;-67
2023/09/06 11:11:09;;;;;;;8.20;4.03;;;;;;;32.19;41.95;97001.75;2067051;28;20436;-68
2023/09/06 11:12:13;;;;;;;9.23;3.57;;;;;;;33.05;41.64;96997.00;2066407;28;20473;-68
2023/09/06 11:13:18;;;;;;;14.27;5.10;;;;;;;32.76;40.77;97001.69;2065377;28;20428;-70
2023/09/06 11:14:20;;;;;;;14.97;5.63;;;;;;;33.67;40.59;96996.94;2063512;28;20466;-68
2023/09/06 11:15:23;;;;;;;6.47;4.00;;;;;;;34.20;40.36;97006.97;2064279;28;20428;-68
2023/09/06 11:16:25;;;;;;;9.13;4.23;;;;;;;34.08;39.03;96998.66;2065476;28;20494;-68
2023/09/06 11:17:26;;;;;;;6.87;4.10;;;;;;;32.72;40.95;97000.38;2065260;28;20431;-68
2023/09/06 11:18:32;;;;;;;6.50;3.67;;;;;;;33.82;40.23;96997.59;2064861;28;20450;-68
2023/09/06 11:19:37;;;;;;;6.30;3.10;;;;;;;34.50;38.80;97003.81;2066933;28;20423;-69
2023/09/06 11:20:39;;;;;;;7.20;4.43;;;;;;;34.08;39.32;96995.09;2066989;28;21070;-68
2023/09/06 11:21:40;;;;;;;9.00;4.23;;;;;;;34.22;38.86;96996.75;2066698;28;20506;-68
2023/09/06 11:22:53;;;;;;;9.67;4.50;;;;;;;33.89;39.45;96994.91;2066729;28;20459;-68
2023/09/06 11:23:56;;;;;;;7.40;3.70;;;;;;;33.56;39.43;97000.25;2066549;28;20475;-68
2023/09/06 11:24:57;;;;;;;7.80;3.47;;;;;;;32.91;41.10;96988.00;2067475;28;20415;-68
2023/09/06 11:25:59;;;;;;;8.67;4.73;;;;;;;32.18;42.34;96989.28;2067367;28;20984;-68
2023/09/06 11:27:17;;;;;;;18.40;4.00;;;;;;;33.27;40.67;96991.44;2068119;28;20446;-68
2023/09/06 11:28:19;;;;;;;8.47;3.97;;;;;;;32.85;40.86;96991.53;2066575;28;20992;-68
2023/09/06 11:29:26;;;;;;;8.47;3.70;;;;;;;33.13;40.50;96987.88;2067626;28;20447;-68
2023/09/06 11:30:31;;;;;;;9.13;4.10;;;;;;;33.38;39.70;96993.56;2066773;28;20463;-68
2023/09/06 11:31:34;;;;;;;8.63;4.00;;;;;;;33.89;39.39;96994.06;2067337;28;20482;-68
2023/09/06 11:32:37;;;;;;;5.93;4.10;;;;;;;32.86;40.86;96991.34;2065951;28;20913;-68
2023/09/06 11:33:38;;;;;;;6.43;3.87;;;;;;;33.66;39.83;96988.00;2066140;28;20493;-68
2023/09/06 11:34:46;;;;;;;16.10;4.50;;;;;;;33.67;39.58;96984.25;2067681;28;20478;-68
2023/09/06 11:35:56;;;;;;;6.83;3.87;;;;;;;33.80;39.03;96985.28;2067109;28;20426;-69
2023/09/06 11:37:03;;;;;;;6.77;3.37;;;;;;;33.05;40.31;96989.72;2067806;28;20987;-68
2023/09/06 11:38:09;;;;;;;8.20;4.43;;;;;;;33.75;39.51;96982.38;2069271;28;20420;-68
2023/09/06 11:39:18;;;;;;;5.10;3.67;;;;;;;34.32;39.23;96994.44;2068536;28;20550;-68
2023/09/06 11:40:24;;;;;;;7.57;3.87;;;;;;;34.40;38.58;96987.16;2067512;28;20965;-68
2023/09/06 11:41:26;;;;;;;9.13;3.37;;;;;;;33.44;40.51;96979.22;2064665;28;21060;-67
2023/09/06 11:42:31;;;;;;;7.40;3.47;;;;;;;34.22;39.53;96979.66;2066244;28;20424;-68
2023/09/06 11:43:33;;;;;;;10.23;3.20;;;;;;;34.50;39.54;96974.84;2067880;28;20442;-68
2023/09/06 11:44:39;;;;;;;8.10;6.40;;;;;;;34.23;38.51;96984.84;2065221;28;20432;-70
2023/09/06 11:45:43;;;;;;;6.63;4.93;;;;;;;33.70;39.59;96975.72;2066601;28;20428;-67
2023/09/06 11:46:46;;;;;;;8.00;3.80;;;;;;;32.36;41.65;96972.56;2068818;28;20451;-69
2023/09/06 11:47:49;;;;;;;21.73;15.57;;;;;;;33.20;41.18;96970.63;2068277;28;21150;-71
2023/09/06 11:48:53;;;;;;;13.70;9.80;;;;;;;34.23;39.48;96976.72;2069132;28;20528;-70
2023/09/06 11:49:55;;;;;;;5.50;3.67;;;;;;;34.46;39.29;96970.88;2069010;28;20428;-68
2023/09/06 11:51:08;;;;;;;6.10;3.60;;;;;;;34.85;38.43;96972.84;2064997;28;20527;-69
2023/09/06 11:52:13;;;;;;;6.87;3.10;;;;;;;33.85;39.41;96966.56;2068074;28;20424;-70
2023/09/06 11:53:14;;;;;;;7.50;3.63;;;;;;;34.41;39.88;96972.56;2068657;28;20418;-70
2023/09/06 11:54:16;;;;;;;6.50;2.80;;;;;;;34.55;38.88;96973.34;2071887;28;20471;-70
2023/09/06 11:55:18;;;;;;;8.43;3.67;;;;;;;32.94;40.74;96968.69;2072231;28;20438;-69